Minturn, Arkansas
Current Conditions -  °F | °C
As of 8:35 PM on Wednesday 22 Oct 2014 (Local Time) from KARG Reporting Station
Clear Clear  
Wind Chill: 54°   Ceiling: Unl
Heat Index: 54°   Visibility: 9mi
Dew Point: 39°   Wind: 6mph
Humidity: 58%   Direction: 30°NNE
Pressure: 30.19"   Gusts: NA
Location:  35.97°N, 91.03°W
Report Text: KARG 230135Z AUTO 03005KT 9SM CLR 12/04 A3019 RMK AO1
Loading
Personal Weather Stations






























Interactive Weather Map New forecast layout! Learn more

10-Day Weather Forecast

Advertisements
Track Severe Weather on mobile